createdAt,value
2022-07-28T00:00:29.782Z,15.12
2022-07-28T00:01:29.806Z,15.07
2022-07-28T00:02:30.035Z,15.07
2022-07-28T00:03:29.853Z,15.10
2022-07-28T00:04:29.734Z,15.12
2022-07-28T00:05:29.735Z,15.12
2022-07-28T00:06:29.702Z,15.12
2022-07-28T00:07:29.758Z,15.12
2022-07-28T00:08:29.682Z,15.10
2022-07-28T00:09:29.685Z,15.05
2022-07-28T00:10:29.653Z,15.04
2022-07-28T00:11:29.655Z,15.02
2022-07-28T00:12:29.654Z,14.99
2022-07-28T00:13:29.618Z,14.96
2022-07-28T00:14:29.601Z,14.94
2022-07-28T00:15:29.594Z,14.90
2022-07-28T00:16:29.629Z,14.89
2022-07-28T00:17:29.594Z,14.90
2022-07-28T00:18:29.553Z,14.89
2022-07-28T00:19:29.534Z,14.90
2022-07-28T00:20:29.546Z,14.90
2022-07-28T00:21:29.503Z,14.87
2022-07-28T00:22:29.505Z,14.89
2022-07-28T00:23:39.542Z,14.89
2022-07-28T00:24:30.464Z,14.90
2022-07-28T00:25:29.457Z,14.89
2022-07-28T00:26:29.444Z,14.90
2022-07-28T00:27:29.445Z,14.90
2022-07-28T00:28:29.413Z,14.86
2022-07-28T00:29:49.211Z,14.82
2022-07-28T00:30:30.385Z,14.81
2022-07-28T00:31:29.404Z,14.77
2022-07-28T00:32:29.385Z,14.71
2022-07-28T00:33:29.356Z,14.68
2022-07-28T00:34:29.338Z,14.61
2022-07-28T00:35:31.180Z,14.53
2022-07-28T00:36:29.326Z,14.49
2022-07-28T00:37:29.318Z,14.45
2022-07-28T00:38:29.284Z,14.45
2022-07-28T00:39:29.265Z,14.41
2022-07-28T00:40:29.255Z,14.37
2022-07-28T00:41:29.276Z,14.37
2022-07-28T00:42:29.246Z,14.36
2022-07-28T00:43:29.216Z,14.38
2022-07-28T00:44:29.198Z,14.41
2022-07-28T00:45:29.187Z,14.44
2022-07-28T00:46:29.252Z,14.45
2022-07-28T00:47:33.424Z,14.45
2022-07-28T00:48:30.137Z,14.45
2022-07-28T00:49:29.137Z,14.45
2022-07-28T00:50:29.116Z,14.48
2022-07-28T00:51:29.107Z,14.48
2022-07-28T00:52:29.132Z,14.44
2022-07-28T00:53:29.078Z,14.41
2022-07-28T00:54:29.077Z,14.36
2022-07-28T00:55:29.058Z,14.28
2022-07-28T00:56:29.037Z,14.23
2022-07-28T00:57:29.038Z,14.23
2022-07-28T00:58:29.008Z,14.15
2022-07-28T00:59:28.999Z,14.11
2022-07-28T01:00:28.982Z,14.13
2022-07-28T01:01:29.000Z,14.13
2022-07-28T01:02:29.160Z,14.20
2022-07-28T01:03:28.946Z,14.20
2022-07-28T01:04:28.932Z,14.20
2022-07-28T01:05:44.215Z,14.20
2022-07-28T01:06:29.928Z,14.20
2022-07-28T01:07:28.909Z,14.19
2022-07-28T01:08:28.877Z,14.15
2022-07-28T01:09:28.868Z,14.13
2022-07-28T01:10:28.838Z,14.12
2022-07-28T01:11:28.838Z,14.11
2022-07-28T01:12:28.839Z,14.08
2022-07-28T01:13:30.172Z,14.08
2022-07-28T01:14:28.831Z,14.11
2022-07-28T01:15:28.787Z,14.11
2022-07-28T01:16:28.844Z,14.13
2022-07-28T01:17:28.758Z,14.15
2022-07-28T01:18:28.750Z,14.18
2022-07-28T01:19:28.722Z,14.20
2022-07-28T01:20:28.709Z,14.25
2022-07-28T01:21:28.701Z,14.23
2022-07-28T01:22:28.689Z,14.28
2022-07-28T01:23:28.702Z,14.26
2022-07-28T01:24:28.654Z,14.23
2022-07-28T01:25:28.639Z,14.19
2022-07-28T01:26:28.631Z,14.13
2022-07-28T01:27:28.621Z,14.07
2022-07-28T01:28:28.610Z,14.01
2022-07-28T01:29:28.599Z,13.98
2022-07-28T01:30:28.570Z,13.91
2022-07-28T01:31:28.637Z,13.86
2022-07-28T01:32:28.539Z,13.82
2022-07-28T01:33:28.550Z,13.82
2022-07-28T01:34:28.549Z,13.79
2022-07-28T01:35:28.508Z,13.78
2022-07-28T01:36:28.495Z,13.76
2022-07-28T01:37:28.491Z,13.70
2022-07-28T01:38:28.490Z,13.68
2022-07-28T01:39:28.452Z,13.67
2022-07-28T01:40:28.434Z,13.71
2022-07-28T01:41:28.432Z,13.71
2022-07-28T01:42:28.421Z,13.76
2022-07-28T01:43:28.430Z,13.78
2022-07-28T01:44:28.390Z,13.80
2022-07-28T01:45:28.369Z,13.82
2022-07-28T01:46:28.414Z,13.83
2022-07-28T01:47:28.340Z,13.85
2022-07-28T01:48:28.351Z,13.86
2022-07-28T01:49:28.321Z,13.89
2022-07-28T01:50:28.298Z,13.91
2022-07-28T01:51:28.289Z,13.94
2022-07-28T01:52:28.279Z,13.94
2022-07-28T01:53:28.290Z,13.95
2022-07-28T01:54:28.254Z,14.00
2022-07-28T01:55:28.230Z,14.00
2022-07-28T01:56:28.220Z,14.01
2022-07-28T01:57:28.257Z,14.00
2022-07-28T01:58:28.209Z,13.98
2022-07-28T01:59:28.186Z,13.98
2022-07-28T02:00:28.181Z,13.94
2022-07-28T02:01:28.218Z,13.91
2022-07-28T02:02:28.149Z,13.87
2022-07-28T02:03:28.151Z,13.83
2022-07-28T02:04:28.114Z,13.79
2022-07-28T02:05:28.144Z,13.73
2022-07-28T02:06:28.088Z,13.65
2022-07-28T02:07:28.070Z,13.62
2022-07-28T02:08:28.081Z,13.58
2022-07-28T02:09:28.051Z,13.52
2022-07-28T02:10:28.028Z,13.49
2022-07-28T02:11:28.041Z,13.43
2022-07-28T02:12:28.002Z,13.42
2022-07-28T02:13:28.021Z,13.39
2022-07-28T02:14:28.022Z,13.39
2022-07-28T02:15:28.015Z,13.40
2022-07-28T02:16:27.968Z,13.39
2022-07-28T02:17:27.930Z,13.37
2022-07-28T02:18:27.923Z,13.36
2022-07-28T02:19:27.934Z,13.33
2022-07-28T02:20:27.900Z,13.30
2022-07-28T02:21:27.897Z,13.30
2022-07-28T02:22:27.872Z,13.30
2022-07-28T02:23:27.853Z,13.33
2022-07-28T02:24:27.879Z,13.36
2022-07-28T02:25:27.841Z,13.36
2022-07-28T02:26:27.812Z,13.36
2022-07-28T02:27:28.083Z,13.39
2022-07-28T02:28:27.812Z,13.39
2022-07-28T02:29:49.876Z,13.39
2022-07-28T02:30:28.762Z,13.37
2022-07-28T02:31:27.884Z,13.37
2022-07-28T02:32:28.580Z,13.37
2022-07-28T02:33:58.038Z,13.42
2022-07-28T02:34:28.722Z,13.40
2022-07-28T02:35:27.932Z,13.40
2022-07-28T02:36:27.892Z,13.40
2022-07-28T02:37:27.702Z,13.42
2022-07-28T02:38:27.652Z,13.40
2022-07-28T02:39:27.663Z,13.37
2022-07-28T02:40:27.623Z,13.33
2022-07-28T02:41:27.613Z,13.36
2022-07-28T02:42:27.628Z,13.27
2022-07-28T02:43:49.039Z,13.24
2022-07-28T02:44:28.593Z,13.20
2022-07-28T02:45:27.560Z,13.16
2022-07-28T02:46:27.614Z,13.13
2022-07-28T02:47:27.532Z,13.11
2022-07-28T02:48:27.510Z,13.11
2022-07-28T02:49:27.565Z,13.09
2022-07-28T02:50:27.489Z,13.12
2022-07-28T02:51:27.484Z,13.16
2022-07-28T02:52:27.454Z,13.13
2022-07-28T02:53:27.454Z,13.16
2022-07-28T02:54:27.451Z,13.16
2022-07-28T02:55:27.423Z,13.16
2022-07-28T02:56:27.412Z,13.13
2022-07-28T02:57:27.394Z,13.09
2022-07-28T02:58:27.375Z,13.05
2022-07-28T02:59:27.392Z,13.02
2022-07-28T03:00:27.356Z,13.02
2022-07-28T03:01:27.400Z,13.03
2022-07-28T03:02:27.314Z,13.06
2022-07-28T03:03:27.315Z,13.08
2022-07-28T03:04:27.315Z,13.11
2022-07-28T03:05:27.426Z,13.09
2022-07-28T03:06:28.993Z,13.08
2022-07-28T03:07:27.272Z,13.03
2022-07-28T03:08:27.246Z,13.01
2022-07-28T03:09:27.244Z,13.02
2022-07-28T03:10:34.179Z,13.02
2022-07-28T03:11:28.209Z,12.98
2022-07-28T03:12:27.190Z,12.93
2022-07-28T03:13:27.186Z,12.91
2022-07-28T03:14:27.170Z,12.94
2022-07-28T03:15:27.173Z,12.91
2022-07-28T03:16:27.253Z,12.94
2022-07-28T03:17:27.132Z,12.94
2022-07-28T03:18:27.106Z,12.94
2022-07-28T03:19:27.115Z,12.91
2022-07-28T03:20:27.078Z,12.93
2022-07-28T03:21:27.077Z,12.95
2022-07-28T03:22:27.065Z,13.01
2022-07-28T03:23:27.044Z,13.01
2022-07-28T03:24:27.046Z,12.98
2022-07-28T03:25:27.015Z,12.95
2022-07-28T03:26:26.995Z,12.90
2022-07-28T03:27:26.995Z,12.86
2022-07-28T03:28:26.976Z,12.81
2022-07-28T03:29:26.987Z,12.80
2022-07-28T03:30:27.007Z,12.76
2022-07-28T03:31:26.946Z,12.78
2022-07-28T03:32:26.916Z,12.76
2022-07-28T03:33:26.915Z,12.70
2022-07-28T03:34:26.916Z,12.66
2022-07-28T03:35:26.888Z,12.66
2022-07-28T03:36:26.867Z,12.62
2022-07-28T03:37:26.846Z,12.61
2022-07-28T03:38:26.837Z,12.62
2022-07-28T03:39:26.836Z,12.61
2022-07-28T03:40:27.833Z,12.55
2022-07-28T03:41:26.826Z,12.50
2022-07-28T03:42:26.776Z,12.48
2022-07-28T03:43:27.226Z,12.45
2022-07-28T03:44:27.858Z,12.48
2022-07-28T03:45:26.746Z,12.51
2022-07-28T03:46:26.777Z,12.50
2022-07-28T03:47:26.707Z,12.48
2022-07-28T03:48:26.697Z,12.48
2022-07-28T03:49:26.706Z,12.47
2022-07-28T03:50:26.666Z,12.48
2022-07-28T03:51:26.672Z,12.50
2022-07-28T03:52:26.665Z,12.53
2022-07-28T03:53:26.637Z,12.50
2022-07-28T03:54:26.637Z,12.47
2022-07-28T03:55:26.608Z,12.47
2022-07-28T03:56:26.588Z,12.47
2022-07-28T03:57:26.607Z,12.47
2022-07-28T03:58:28.691Z,12.48
2022-07-28T03:59:26.599Z,12.48
2022-07-28T04:00:26.545Z,12.50
2022-07-28T04:01:26.600Z,12.48
2022-07-28T04:02:26.550Z,12.45
2022-07-28T04:03:37.681Z,12.44
2022-07-28T04:04:27.510Z,12.44
2022-07-28T04:05:26.479Z,12.48
2022-07-28T04:06:26.458Z,12.50
2022-07-28T04:07:26.449Z,12.54
2022-07-28T04:08:26.427Z,12.54
2022-07-28T04:09:26.420Z,12.55
2022-07-28T04:10:26.427Z,12.55
2022-07-28T04:11:26.387Z,12.55
2022-07-28T04:12:26.392Z,12.54
2022-07-28T04:13:26.359Z,12.53
2022-07-28T04:14:26.351Z,12.54
2022-07-28T04:15:26.349Z,12.53
2022-07-28T04:16:26.377Z,12.54
2022-07-28T04:17:26.308Z,12.55
2022-07-28T04:18:26.298Z,12.55
2022-07-28T04:19:26.293Z,12.57
2022-07-28T04:20:26.291Z,12.57
2022-07-28T04:21:26.271Z,12.57
2022-07-28T04:22:26.241Z,12.55
2022-07-28T04:23:26.223Z,12.54
2022-07-28T04:24:26.221Z,12.54
2022-07-28T04:25:26.229Z,12.51
2022-07-28T04:26:26.188Z,12.48
2022-07-28T04:27:26.169Z,12.48
2022-07-28T04:28:26.169Z,12.51
2022-07-28T04:29:27.597Z,12.53
2022-07-28T04:30:26.196Z,12.54
2022-07-28T04:31:26.190Z,12.61
2022-07-28T04:32:26.108Z,12.66
2022-07-28T04:33:26.086Z,12.66
2022-07-28T04:34:26.081Z,12.70
2022-07-28T04:35:26.088Z,12.72
2022-07-28T04:36:26.050Z,12.75
2022-07-28T04:37:26.039Z,12.78
2022-07-28T04:38:27.029Z,12.76
2022-07-28T04:39:26.018Z,12.78
2022-07-28T04:40:26.021Z,12.81
2022-07-28T04:41:25.990Z,12.84
2022-07-28T04:42:25.971Z,12.83
2022-07-28T04:43:25.959Z,12.83
2022-07-28T04:44:25.951Z,12.86
2022-07-28T04:45:25.951Z,12.84
2022-07-28T04:46:26.088Z,12.84
2022-07-28T04:47:25.913Z,12.86
2022-07-28T04:48:25.902Z,12.86
2022-07-28T04:49:25.878Z,12.88
2022-07-28T04:50:25.923Z,12.87
2022-07-28T04:51:25.860Z,12.88
2022-07-28T04:52:25.845Z,12.93
2022-07-28T04:53:25.830Z,12.95
2022-07-28T04:54:26.799Z,12.98
2022-07-28T04:55:25.830Z,13.02
2022-07-28T04:56:25.791Z,13.05
2022-07-28T04:57:25.771Z,13.08
2022-07-28T04:58:25.754Z,13.09
2022-07-28T04:59:25.760Z,13.09
2022-07-28T05:00:25.743Z,13.13
2022-07-28T05:01:25.784Z,13.16
2022-07-28T05:02:25.727Z,13.17
2022-07-28T05:03:25.693Z,13.19
2022-07-28T05:04:25.740Z,13.20
2022-07-28T05:05:25.661Z,13.21
2022-07-28T05:06:25.673Z,13.23
2022-07-28T05:07:25.647Z,13.21
2022-07-28T05:08:26.599Z,13.23
2022-07-28T05:09:25.616Z,13.23
2022-07-28T05:10:25.633Z,13.24
2022-07-28T05:11:25.581Z,13.26
2022-07-28T05:12:25.578Z,13.28
2022-07-28T05:13:30.350Z,13.33
2022-07-28T05:14:26.572Z,13.42
2022-07-28T05:15:25.532Z,13.57
2022-07-28T05:16:25.574Z,13.64
2022-07-28T05:17:25.507Z,13.67
2022-07-28T05:18:25.492Z,13.71
2022-07-28T05:19:25.714Z,13.79
2022-07-28T05:20:25.453Z,13.87
2022-07-28T05:21:25.460Z,13.93
2022-07-28T05:22:25.436Z,13.95
2022-07-28T05:23:25.421Z,14.07
2022-07-28T05:24:25.402Z,14.20
2022-07-28T05:25:25.441Z,14.33
2022-07-28T05:26:25.392Z,14.34
2022-07-28T05:27:25.384Z,14.30
2022-07-28T05:28:25.342Z,14.26
2022-07-28T05:29:25.351Z,14.30
2022-07-28T05:30:26.331Z,14.37
2022-07-28T05:31:25.388Z,14.38
2022-07-28T05:32:25.366Z,14.36
2022-07-28T05:33:29.006Z,14.36
2022-07-28T05:34:26.262Z,14.36
2022-07-28T05:35:25.254Z,14.36
2022-07-28T05:36:25.254Z,14.34
2022-07-28T05:37:25.221Z,14.36
2022-07-28T05:38:25.231Z,14.36
2022-07-28T05:39:25.525Z,14.36
2022-07-28T05:40:25.204Z,14.37
2022-07-28T05:41:25.931Z,14.40
2022-07-28T05:42:25.513Z,14.45
2022-07-28T05:43:25.263Z,14.63
2022-07-28T05:44:25.145Z,14.74
2022-07-28T05:45:25.168Z,14.82
2022-07-28T05:46:25.256Z,14.92
2022-07-28T05:47:25.165Z,15.11
2022-07-28T05:48:25.124Z,15.18
2022-07-28T05:49:25.170Z,15.19
2022-07-28T05:50:25.149Z,15.17
2022-07-28T05:51:25.062Z,15.14
2022-07-28T05:52:25.100Z,15.19
2022-07-28T05:53:25.060Z,15.25
2022-07-28T05:54:25.005Z,15.26
2022-07-28T05:55:25.240Z,15.37
2022-07-28T05:56:25.044Z,15.50
2022-07-28T05:57:24.993Z,15.57
2022-07-28T05:58:24.966Z,15.62
2022-07-28T05:59:25.176Z,15.84
2022-07-28T06:00:24.925Z,16.00
2022-07-28T06:01:25.065Z,16.06
2022-07-28T06:02:25.049Z,16.05
2022-07-28T06:03:24.884Z,16.00
2022-07-28T06:04:27.077Z,15.90
2022-07-28T06:05:25.019Z,15.80
2022-07-28T06:06:24.857Z,15.73
2022-07-28T06:07:43.597Z,15.72
2022-07-28T06:08:25.797Z,15.75
2022-07-28T06:09:24.794Z,15.73
2022-07-28T06:10:24.794Z,15.72
2022-07-28T06:11:24.795Z,15.67
2022-07-28T06:12:24.755Z,15.63
2022-07-28T06:13:24.752Z,15.60
2022-07-28T06:14:24.738Z,15.57
2022-07-28T06:15:25.029Z,15.52
2022-07-28T06:16:24.784Z,15.51
2022-07-28T06:17:24.696Z,15.51
2022-07-28T06:18:24.687Z,15.50
2022-07-28T06:19:24.666Z,15.50
2022-07-28T06:20:24.656Z,15.52
2022-07-28T06:21:24.697Z,15.54
2022-07-28T06:22:24.638Z,15.59
2022-07-28T06:23:24.629Z,15.65
2022-07-28T06:24:24.604Z,15.87
2022-07-28T06:25:24.649Z,16.10
2022-07-28T06:26:24.607Z,16.37
2022-07-28T06:27:24.558Z,16.49
2022-07-28T06:28:24.546Z,16.61
2022-07-28T06:29:24.536Z,16.76
2022-07-28T06:30:24.506Z,16.79
2022-07-28T06:31:24.579Z,16.87
2022-07-28T06:32:24.518Z,16.92
2022-07-28T06:33:24.502Z,16.99
2022-07-28T06:34:24.477Z,17.14
2022-07-28T06:35:24.467Z,17.19
2022-07-28T06:36:24.447Z,17.19
2022-07-28T06:37:24.438Z,17.23
2022-07-28T06:38:24.418Z,17.35
2022-07-28T06:39:24.399Z,17.39
2022-07-28T06:40:24.381Z,17.42
2022-07-28T06:41:24.370Z,17.50
2022-07-28T06:42:24.368Z,17.50
2022-07-28T06:43:24.340Z,17.52
2022-07-28T06:44:37.500Z,17.57
2022-07-28T06:45:25.340Z,17.63
2022-07-28T06:46:24.341Z,17.73
2022-07-28T06:47:24.310Z,17.76
2022-07-28T06:48:28.773Z,17.72
2022-07-28T06:49:25.287Z,17.65
2022-07-28T06:50:26.118Z,17.68
2022-07-28T06:51:24.248Z,17.75
2022-07-28T06:52:24.238Z,17.82
2022-07-28T06:53:24.198Z,17.88
2022-07-28T06:54:24.188Z,17.98
2022-07-28T06:55:24.181Z,18.06
2022-07-28T06:56:24.159Z,18.09
2022-07-28T06:57:24.160Z,18.16
2022-07-28T06:58:25.137Z,18.28
2022-07-28T06:59:24.118Z,18.42
2022-07-28T07:00:24.089Z,18.53
2022-07-28T07:01:24.145Z,18.57
2022-07-28T07:02:28.051Z,18.60
2022-07-28T07:03:24.059Z,18.58
2022-07-28T07:04:24.087Z,18.55
2022-07-28T07:05:24.050Z,18.45
2022-07-28T07:06:24.060Z,18.37
2022-07-28T07:07:24.022Z,18.37
2022-07-28T07:08:24.011Z,18.42
2022-07-28T07:09:23.990Z,18.46
2022-07-28T07:10:23.982Z,18.45
2022-07-28T07:11:23.971Z,18.45
2022-07-28T07:12:23.971Z,18.46
2022-07-28T07:13:23.948Z,18.49
2022-07-28T07:14:23.932Z,18.53
2022-07-28T07:15:23.924Z,18.57
2022-07-28T07:16:23.950Z,18.57
2022-07-28T07:17:23.913Z,18.57
2022-07-28T07:18:23.892Z,18.57
2022-07-28T07:19:23.869Z,18.57
2022-07-28T07:20:23.862Z,18.53
2022-07-28T07:21:23.842Z,18.58
2022-07-28T07:22:23.844Z,18.61
2022-07-28T07:23:23.833Z,18.67
2022-07-28T07:24:23.791Z,18.78
2022-07-28T07:25:23.782Z,18.81
2022-07-28T07:26:23.772Z,18.79
2022-07-28T07:27:23.791Z,18.82
2022-07-28T07:28:23.743Z,18.82
2022-07-28T07:29:23.733Z,18.83
2022-07-28T07:30:23.713Z,18.85
2022-07-28T07:31:23.752Z,18.85
2022-07-28T07:32:23.703Z,18.86
2022-07-28T07:33:23.681Z,18.89
2022-07-28T07:34:23.737Z,18.92
2022-07-28T07:35:23.704Z,18.94
2022-07-28T07:36:23.643Z,18.96
2022-07-28T07:37:23.652Z,18.97
2022-07-28T07:38:28.851Z,18.94
2022-07-28T07:39:24.595Z,18.96
2022-07-28T07:40:23.656Z,18.92
2022-07-28T07:41:23.574Z,18.94
2022-07-28T07:42:24.841Z,18.97
2022-07-28T07:43:23.693Z,19.00
2022-07-28T07:44:23.585Z,19.07
2022-07-28T07:45:23.574Z,19.07
2022-07-28T07:46:23.578Z,19.08
2022-07-28T07:47:23.511Z,19.11
2022-07-28T07:48:23.484Z,19.15
2022-07-28T07:49:45.333Z,19.17
2022-07-28T07:50:24.453Z,19.23
2022-07-28T07:51:23.432Z,19.24
2022-07-28T07:52:23.443Z,19.27
2022-07-28T07:53:23.411Z,19.29
2022-07-28T07:54:23.398Z,19.27
2022-07-28T07:55:23.375Z,19.26
2022-07-28T07:56:23.382Z,19.32
2022-07-28T07:57:23.367Z,19.37
2022-07-28T07:58:23.343Z,19.37
2022-07-28T07:59:23.325Z,19.37
2022-07-28T08:00:28.780Z,19.35
2022-07-28T08:01:24.429Z,19.35
2022-07-28T08:02:23.306Z,19.37
2022-07-28T08:03:23.286Z,19.37
2022-07-28T08:04:25.314Z,19.38
2022-07-28T08:05:35.594Z,19.38
2022-07-28T08:06:26.208Z,19.39
2022-07-28T08:07:23.227Z,19.41
2022-07-28T08:08:23.224Z,19.42
2022-07-28T08:09:23.204Z,19.42
2022-07-28T08:10:23.193Z,19.45
2022-07-28T08:11:23.165Z,19.47
2022-07-28T08:12:24.668Z,19.49
2022-07-28T08:13:23.155Z,19.52
2022-07-28T08:14:23.128Z,19.55
2022-07-28T08:15:23.108Z,19.57
2022-07-28T08:16:23.213Z,19.60
2022-07-28T08:17:25.934Z,19.63
2022-07-28T08:18:23.095Z,19.64
2022-07-28T08:19:23.056Z,19.70
2022-07-28T08:20:23.040Z,19.72
2022-07-28T08:21:23.027Z,19.77
2022-07-28T08:22:23.018Z,19.78
2022-07-28T08:23:26.306Z,19.78
2022-07-28T08:24:32.630Z,19.82
2022-07-28T08:25:23.977Z,19.82
2022-07-28T08:26:22.958Z,19.85
2022-07-28T08:27:22.940Z,19.90
2022-07-28T08:28:22.948Z,19.93
2022-07-28T08:29:22.918Z,19.94
2022-07-28T08:30:25.235Z,19.99
2022-07-28T08:31:22.986Z,20.02
2022-07-28T08:32:22.887Z,20.04
2022-07-28T08:33:22.878Z,20.08
2022-07-28T08:34:32.453Z,20.07
2022-07-28T08:35:39.288Z,20.08
2022-07-28T08:36:23.818Z,20.11
2022-07-28T08:37:22.817Z,20.17
2022-07-28T08:38:22.810Z,20.18
2022-07-28T08:39:22.783Z,20.22
2022-07-28T08:40:27.377Z,20.27
2022-07-28T08:41:22.788Z,20.33
2022-07-28T08:42:22.739Z,20.34
2022-07-28T08:43:22.750Z,20.36
2022-07-28T08:44:22.710Z,20.37
2022-07-28T08:45:22.707Z,20.40
2022-07-28T08:46:22.739Z,20.42
2022-07-28T08:47:22.670Z,20.40
2022-07-28T08:48:22.678Z,20.42
2022-07-28T08:49:22.669Z,20.42
2022-07-28T08:50:22.633Z,20.44
2022-07-28T08:51:22.653Z,20.49
2022-07-28T08:52:22.598Z,20.49
2022-07-28T08:53:22.613Z,20.50
2022-07-28T08:54:22.580Z,20.52
2022-07-28T08:55:22.561Z,20.55
2022-07-28T08:56:22.592Z,20.58
2022-07-28T08:57:22.554Z,20.59
2022-07-28T08:58:22.572Z,20.63
2022-07-28T08:59:22.517Z,20.68
2022-07-28T09:00:22.493Z,20.71
2022-07-28T09:01:22.534Z,20.74
2022-07-28T09:02:22.696Z,20.77
2022-07-28T09:03:22.543Z,20.78
2022-07-28T09:04:22.462Z,20.83
2022-07-28T09:05:22.432Z,20.88
2022-07-28T09:06:22.423Z,20.90
2022-07-28T09:07:22.412Z,20.93
2022-07-28T09:08:22.388Z,20.93
2022-07-28T09:09:22.394Z,20.95
2022-07-28T09:10:22.352Z,20.98
2022-07-28T09:11:22.341Z,21.00
2022-07-28T09:12:22.330Z,21.05
2022-07-28T09:13:23.313Z,21.08
2022-07-28T09:14:22.325Z,21.13
2022-07-28T09:15:22.297Z,21.13
2022-07-28T09:16:22.316Z,21.17
2022-07-28T09:17:22.274Z,21.20
2022-07-28T09:18:22.246Z,21.23
2022-07-28T09:19:22.254Z,21.22
2022-07-28T09:20:22.224Z,21.20
2022-07-28T09:21:22.213Z,21.22
2022-07-28T09:22:22.184Z,21.25
2022-07-28T09:23:42.105Z,21.30
2022-07-28T09:24:23.175Z,21.33
2022-07-28T09:25:22.181Z,21.37
2022-07-28T09:26:22.135Z,21.40
2022-07-28T09:27:22.133Z,21.44
2022-07-28T09:28:22.105Z,21.48
2022-07-28T09:29:22.123Z,21.58
2022-07-28T09:30:22.085Z,21.60
2022-07-28T09:31:22.179Z,21.65
2022-07-28T09:32:22.056Z,21.72
2022-07-28T09:33:41.801Z,21.75
2022-07-28T09:34:23.046Z,21.78
2022-07-28T09:35:22.026Z,21.81
2022-07-28T09:36:21.995Z,21.83
2022-07-28T09:37:26.794Z,21.84
2022-07-28T09:38:22.976Z,21.83
2022-07-28T09:39:22.012Z,21.81
2022-07-28T09:40:22.536Z,21.80
2022-07-28T09:41:21.970Z,21.83
2022-07-28T09:42:21.990Z,21.88
2022-07-28T09:43:21.918Z,21.94
2022-07-28T09:44:21.928Z,22.00
2022-07-28T09:45:23.832Z,22.01
2022-07-28T09:46:22.041Z,22.00
2022-07-28T09:47:22.150Z,22.06
2022-07-28T09:48:22.042Z,22.10
2022-07-28T09:49:25.211Z,22.14
2022-07-28T09:50:22.816Z,22.19
2022-07-28T09:51:21.797Z,22.22
2022-07-28T09:52:21.788Z,22.23
2022-07-28T09:53:21.798Z,22.26
2022-07-28T09:54:21.784Z,22.26
2022-07-28T09:55:21.739Z,22.26
2022-07-28T09:56:21.728Z,22.30
2022-07-28T09:57:21.718Z,22.31
2022-07-28T09:58:21.730Z,22.33
2022-07-28T09:59:21.727Z,22.33
2022-07-28T10:00:21.677Z,22.31
2022-07-28T10:01:21.707Z,22.31
2022-07-28T10:02:21.847Z,22.33
2022-07-28T10:03:21.682Z,22.37
2022-07-28T10:04:21.640Z,22.38
2022-07-28T10:05:21.619Z,22.40
2022-07-28T10:06:21.598Z,22.41
2022-07-28T10:07:21.590Z,22.43
2022-07-28T10:08:21.573Z,22.46
2022-07-28T10:09:21.582Z,22.47
2022-07-28T10:10:21.547Z,22.47
2022-07-28T10:11:21.530Z,22.53
2022-07-28T10:12:21.531Z,22.58
2022-07-28T10:13:21.512Z,22.59
2022-07-28T10:14:21.540Z,22.61
2022-07-28T10:15:21.481Z,22.62
2022-07-28T10:16:22.504Z,22.62
2022-07-28T10:17:21.451Z,22.62
2022-07-28T10:18:21.438Z,22.63
2022-07-28T10:19:21.442Z,22.67
2022-07-28T10:20:21.411Z,22.70
2022-07-28T10:21:21.471Z,22.74
2022-07-28T10:22:21.391Z,22.78
2022-07-28T10:23:21.374Z,22.83
2022-07-28T10:24:21.385Z,22.88
2022-07-28T10:25:21.355Z,22.86
2022-07-28T10:26:21.353Z,22.88
2022-07-28T10:27:21.322Z,22.89
2022-07-28T10:28:21.303Z,22.89
2022-07-28T10:29:21.311Z,22.89
2022-07-28T10:30:21.271Z,22.91
2022-07-28T10:31:21.332Z,22.95
2022-07-28T10:32:21.244Z,23.01
2022-07-28T10:33:21.245Z,22.98
2022-07-28T10:34:24.631Z,23.01
2022-07-28T10:35:21.214Z,23.06
2022-07-28T10:36:21.202Z,23.08
2022-07-28T10:37:21.194Z,23.17
2022-07-28T10:38:21.165Z,23.20
2022-07-28T10:39:21.186Z,23.23
2022-07-28T10:40:21.137Z,23.26
2022-07-28T10:41:21.133Z,23.26
2022-07-28T10:42:21.113Z,23.29
2022-07-28T10:43:21.106Z,23.33
2022-07-28T10:44:21.105Z,23.34
2022-07-28T10:45:21.096Z,23.36
2022-07-28T10:46:21.106Z,23.36
2022-07-28T10:47:21.168Z,23.36
2022-07-28T10:48:21.028Z,23.39
2022-07-28T10:49:21.194Z,23.42
2022-07-28T10:50:21.005Z,23.47
2022-07-28T10:51:21.008Z,23.54
2022-07-28T10:52:45.805Z,23.58
2022-07-28T10:53:21.964Z,23.64
2022-07-28T10:54:25.170Z,23.69
2022-07-28T10:55:20.936Z,23.74
2022-07-28T10:56:20.915Z,23.77
2022-07-28T10:57:20.934Z,23.77
2022-07-28T10:58:25.075Z,23.81
2022-07-28T10:59:20.887Z,23.82
2022-07-28T11:00:26.415Z,23.84
2022-07-28T11:01:46.463Z,23.86
2022-07-28T11:02:21.939Z,23.89
2022-07-28T11:03:21.000Z,23.92
2022-07-28T11:04:20.820Z,23.96
2022-07-28T11:05:20.828Z,24.01
2022-07-28T11:06:20.798Z,24.00
2022-07-28T11:07:20.780Z,24.04
2022-07-28T11:08:20.768Z,24.06
2022-07-28T11:09:20.750Z,24.06
2022-07-28T11:10:20.756Z,24.09
2022-07-28T11:11:20.734Z,24.10
2022-07-28T11:12:20.707Z,24.10
2022-07-28T11:13:21.700Z,24.10
2022-07-28T11:14:20.711Z,24.13
2022-07-28T11:15:20.689Z,24.18
2022-07-28T11:16:20.730Z,24.19
2022-07-28T11:17:24.301Z,24.24
2022-07-28T11:18:21.627Z,24.28
2022-07-28T11:19:40.093Z,24.29
2022-07-28T11:20:29.934Z,24.28
2022-07-28T11:21:21.590Z,24.24
2022-07-28T11:22:20.577Z,24.25
2022-07-28T11:23:20.570Z,24.28
2022-07-28T11:24:21.551Z,24.28
2022-07-28T11:25:22.570Z,24.34
2022-07-28T11:26:20.531Z,24.37
2022-07-28T11:27:20.520Z,24.43
2022-07-28T11:28:20.500Z,24.44
2022-07-28T11:29:20.490Z,24.48
2022-07-28T11:30:20.555Z,24.55
2022-07-28T11:31:20.513Z,24.56
2022-07-28T11:32:20.449Z,24.59
2022-07-28T11:33:21.431Z,24.63
2022-07-28T11:34:20.421Z,24.66
2022-07-28T11:35:20.415Z,24.71
2022-07-28T11:36:20.382Z,24.77
2022-07-28T11:37:20.372Z,24.79
2022-07-28T11:38:20.361Z,24.88
2022-07-28T11:39:20.349Z,24.94
2022-07-28T11:40:20.342Z,25.00
2022-07-28T11:41:20.333Z,25.03
2022-07-28T11:42:20.322Z,25.00
2022-07-28T11:43:22.316Z,24.96
2022-07-28T11:44:20.274Z,24.94
2022-07-28T11:45:20.286Z,24.89
2022-07-28T11:46:20.260Z,24.82
2022-07-28T11:47:20.243Z,24.81
2022-07-28T11:48:20.224Z,24.78
2022-07-28T11:49:20.263Z,24.78
2022-07-28T11:50:20.239Z,24.82
2022-07-28T11:51:20.197Z,24.79
2022-07-28T11:52:20.194Z,24.79
2022-07-28T11:53:20.164Z,24.71
2022-07-28T11:54:20.147Z,24.63
2022-07-28T11:55:20.140Z,24.56
2022-07-28T11:56:21.136Z,24.50
2022-07-28T11:57:20.105Z,24.38
2022-07-28T11:58:20.099Z,24.29
2022-07-28T11:59:20.094Z,24.22
2022-07-28T12:00:20.075Z,24.19
2022-07-28T12:01:20.178Z,24.13
2022-07-28T12:02:20.108Z,24.07
2022-07-28T12:03:20.032Z,24.00
2022-07-28T12:04:20.307Z,23.96
2022-07-28T12:05:20.007Z,23.92
2022-07-28T12:06:29.346Z,23.91
2022-07-28T12:07:20.977Z,23.85
2022-07-28T12:08:19.956Z,23.79
2022-07-28T12:09:25.264Z,23.76
2022-07-28T12:10:44.061Z,23.74
2022-07-28T12:11:20.936Z,23.73
2022-07-28T12:12:19.898Z,23.73
2022-07-28T12:13:19.912Z,23.71
2022-07-28T12:14:20.219Z,23.73
2022-07-28T12:15:19.869Z,23.73
2022-07-28T12:16:19.962Z,23.71
2022-07-28T12:17:19.837Z,23.71
2022-07-28T12:18:19.819Z,23.71
2022-07-28T12:19:19.824Z,23.73
2022-07-28T12:20:20.442Z,23.74
2022-07-28T12:21:19.808Z,23.77
2022-07-28T12:22:19.820Z,23.82
2022-07-28T12:23:19.769Z,23.82
2022-07-28T12:24:20.482Z,23.85
2022-07-28T12:25:20.095Z,23.84
2022-07-28T12:26:19.749Z,23.88
2022-07-28T12:27:20.711Z,23.92
2022-07-28T12:28:19.792Z,23.92
2022-07-28T12:29:20.617Z,23.91
2022-07-28T12:30:19.740Z,23.92
2022-07-28T12:31:19.855Z,23.94
2022-07-28T12:32:19.720Z,23.94
2022-07-28T12:33:19.631Z,23.92
2022-07-28T12:34:19.730Z,23.94
2022-07-28T12:35:19.611Z,23.94
2022-07-28T12:36:19.619Z,23.91
2022-07-28T12:37:19.579Z,23.91
2022-07-28T12:38:19.602Z,23.91
2022-07-28T12:39:19.544Z,23.89
2022-07-28T12:40:19.542Z,23.91
2022-07-28T12:41:20.533Z,23.94
2022-07-28T12:42:19.518Z,23.99
2022-07-28T12:43:19.494Z,24.01
2022-07-28T12:44:19.495Z,24.03
2022-07-28T12:45:19.477Z,24.07
2022-07-28T12:46:19.543Z,24.09
2022-07-28T12:47:19.493Z,24.10
2022-07-28T12:48:19.456Z,24.13
2022-07-28T12:49:19.505Z,24.13
2022-07-28T12:50:19.437Z,24.13
2022-07-28T12:51:19.424Z,24.13
2022-07-28T12:52:22.346Z,24.10